Time;durP1;ratioP1;P1;durP2;ratioP2;P2;SDS_P1;SDS_P2;PMS_P1;PMS_P2;Temp;Humidity;BMP_temperature;BMP_pressure;BME280_temperature;BME280_humidity;BME280_pressure;Samples;Min_cycle;Max_cycle;Signal;HPM_P1;HPM_P2
2023/10/31 00:00:32;;;;;;;514.17;161.63;;;;;;;;;;5014620;28;20071;-52
2023/10/31 00:02:57;;;;;;;438.90;156.65;;;;;;;;;;5015175;28;20615;-52
2023/10/31 00:05:23;;;;;;;504.15;144.93;;;;;;;;;;5011440;28;20025;-53
2023/10/31 00:07:48;;;;;;;455.85;136.82;;;;;;;;;;5016057;28;20021;-54
2023/10/31 00:10:13;;;;;;;443.80;123.30;;;;;;;;;;5014670;28;20021;-53
2023/10/31 00:12:39;;;;;;;429.70;125.82;;;;;;;;;;5016120;28;20272;-53
2023/10/31 00:15:05;;;;;;;485.55;130.65;;;;;;;;;;5012527;28;20105;-53
2023/10/31 00:17:30;;;;;;;404.85;134.38;;;;;;;;;;5014554;28;20109;-53
2023/10/31 00:19:56;;;;;;;429.08;135.70;;;;;;;;;;5015835;28;20067;-52
2023/10/31 00:22:21;;;;;;;590.60;147.23;;;;;;;;;;5012027;28;20708;-53
2023/10/31 00:24:46;;;;;;;474.20;143.05;;;;;;;;;;5015392;28;20382;-52
2023/10/31 00:27:12;;;;;;;486.63;144.60;;;;;;;;;;5013394;28;20029;-52
2023/10/31 00:29:37;;;;;;;426.52;142.60;;;;;;;;;;5016271;28;20279;-52
2023/10/31 00:32:02;;;;;;;475.05;146.60;;;;;;;;;;5015044;28;20040;-52
2023/10/31 00:34:28;;;;;;;492.98;146.07;;;;;;;;;;5012295;28;20021;-53
2023/10/31 00:36:53;;;;;;;447.60;146.37;;;;;;;;;;5015293;28;20114;-52
2023/10/31 00:39:18;;;;;;;528.83;147.80;;;;;;;;;;5012444;28;20339;-53
2023/10/31 00:41:45;;;;;;;431.70;141.97;;;;;;;;;;5014487;28;20296;-53
2023/10/31 00:44:10;;;;;;;587.70;150.45;;;;;;;;;;5012468;28;20284;-53
2023/10/31 00:46:35;;;;;;;488.97;146.57;;;;;;;;;;5014235;28;20324;-53
2023/10/31 00:49:00;;;;;;;454.30;147.80;;;;;;;;;;5015775;28;20440;-54
2023/10/31 00:51:25;;;;;;;461.58;147.07;;;;;;;;;;5012110;28;20333;-53
2023/10/31 00:53:51;;;;;;;478.90;148.63;;;;;;;;;;5014112;28;20025;-53
2023/10/31 00:56:16;;;;;;;536.27;152.97;;;;;;;;;;5012833;28;20454;-53
2023/10/31 00:58:41;;;;;;;431.17;147.52;;;;;;;;;;5014614;28;20621;-53
2023/10/31 01:01:06;;;;;;;503.20;151.77;;;;;;;;;;5012998;28;20480;-53
2023/10/31 01:03:32;;;;;;;543.13;152.13;;;;;;;;;;5013031;28;20605;-53
2023/10/31 01:05:57;;;;;;;486.45;152.02;;;;;;;;;;5012984;28;20287;-54
2023/10/31 01:08:22;;;;;;;636.75;160.07;;;;;;;;;;5012445;28;20018;-53
2023/10/31 01:10:47;;;;;;;524.37;157.33;;;;;;;;;;5013193;28;20741;-53
2023/10/31 01:13:13;;;;;;;539.13;156.25;;;;;;;;;;5010990;28;20739;-53
2023/10/31 01:15:38;;;;;;;489.70;152.43;;;;;;;;;;5011767;28;20110;-53
2023/10/31 01:18:03;;;;;;;483.63;151.93;;;;;;;;;;5013743;28;20017;-53
2023/10/31 01:20:29;;;;;;;470.58;151.23;;;;;;;;;;5011598;28;20260;-53
2023/10/31 01:22:54;;;;;;;504.40;155.43;;;;;;;;;;5012597;28;20029;-54
2023/10/31 01:25:19;;;;;;;573.40;158.55;;;;;;;;;;5010896;28;20260;-53
2023/10/31 01:27:44;;;;;;;463.40;151.97;;;;;;;;;;5013200;28;20032;-54
2023/10/31 01:30:10;;;;;;;534.38;158.15;;;;;;;;;;5010843;28;20268;-53
2023/10/31 01:32:35;;;;;;;523.78;156.95;;;;;;;;;;5012038;28;20029;-53
2023/10/31 01:35:01;;;;;;;484.00;155.82;;;;;;;;;;5012945;28;20037;-53
2023/10/31 01:37:26;;;;;;;468.67;153.85;;;;;;;;;;5012606;28;20667;-53
2023/10/31 01:39:51;;;;;;;459.10;155.07;;;;;;;;;;5014120;28;20006;-53
2023/10/31 01:42:17;;;;;;;572.25;160.40;;;;;;;;;;5010610;28;20033;-53
2023/10/31 01:44:42;;;;;;;435.95;152.70;;;;;;;;;;5013943;28;20108;-53
2023/10/31 01:47:07;;;;;;;458.48;152.13;;;;;;;;;;5014266;28;20037;-54
2023/10/31 01:49:33;;;;;;;466.27;154.80;;;;;;;;;;5014811;28;20021;-53
2023/10/31 01:52:02;;;;;;;462.05;154.32;;;;;;;;;;5013051;28;20025;-53
2023/10/31 01:54:28;;;;;;;445.33;138.20;;;;;;;;;;5011024;28;20026;-52
2023/10/31 01:56:57;;;;;;;454.95;143.25;;;;;;;;;;5012887;28;20038;-54
2023/10/31 01:59:23;;;;;;;579.05;152.38;;;;;;;;;;5012569;28;20065;-53
2023/10/31 02:01:49;;;;;;;413.80;142.52;;;;;;;;;;5015279;28;20068;-53
2023/10/31 02:04:14;;;;;;;613.63;153.68;;;;;;;;;;5011792;28;20048;-53
2023/10/31 02:06:40;;;;;;;449.20;145.25;;;;;;;;;;5013834;28;20037;-53
2023/10/31 02:09:05;;;;;;;426.02;144.48;;;;;;;;;;5013565;28;20028;-53
2023/10/31 02:11:30;;;;;;;511.77;151.73;;;;;;;;;;5014589;28;20099;-52
2023/10/31 02:13:55;;;;;;;490.08;149.88;;;;;;;;;;5017808;28;20292;-52
2023/10/31 02:16:20;;;;;;;542.58;146.40;;;;;;;;;;5016782;28;20555;-52
2023/10/31 02:18:46;;;;;;;449.00;141.67;;;;;;;;;;5018652;28;20018;-53
2023/10/31 02:21:11;;;;;;;508.13;143.32;;;;;;;;;;5016740;28;20359;-53
2023/10/31 02:23:36;;;;;;;475.13;143.13;;;;;;;;;;5016049;28;20497;-53
2023/10/31 02:26:03;;;;;;;470.30;143.30;;;;;;;;;;5018121;28;20687;-53
2023/10/31 02:28:28;;;;;;;479.15;142.00;;;;;;;;;;5015339;28;20025;-53
2023/10/31 02:30:54;;;;;;;450.23;139.50;;;;;;;;;;5016126;28;20083;-53
2023/10/31 02:33:20;;;;;;;559.78;145.20;;;;;;;;;;5013857;28;20657;-53
2023/10/31 02:35:45;;;;;;;456.40;137.57;;;;;;;;;;5014270;28;20029;-53
2023/10/31 02:38:10;;;;;;;463.48;139.52;;;;;;;;;;5014644;28;20031;-53
2023/10/31 02:40:36;;;;;;;438.45;142.23;;;;;;;;;;5015619;28;20030;-52
2023/10/31 02:43:02;;;;;;;483.27;143.85;;;;;;;;;;5014914;28;20245;-53
2023/10/31 02:45:27;;;;;;;599.58;151.52;;;;;;;;;;5012300;28;20124;-52
2023/10/31 02:47:53;;;;;;;464.85;143.90;;;;;;;;;;5016681;28;20029;-53
2023/10/31 02:50:18;;;;;;;531.25;136.45;;;;;;;;;;5015116;28;20348;-53
2023/10/31 02:52:43;;;;;;;473.05;127.43;;;;;;;;;;5014749;28;20045;-54
2023/10/31 02:55:08;;;;;;;479.40;135.50;;;;;;;;;;5014359;28;20131;-53
2023/10/31 02:57:34;;;;;;;475.07;136.90;;;;;;;;;;5013670;28;20072;-52
2023/10/31 02:59:59;;;;;;;456.30;140.80;;;;;;;;;;5016222;28;20454;-53
2023/10/31 03:02:24;;;;;;;556.15;136.00;;;;;;;;;;5013234;28;20328;-52
2023/10/31 03:04:49;;;;;;;450.08;129.30;;;;;;;;;;5014719;28;20108;-53
2023/10/31 03:07:15;;;;;;;539.60;141.90;;;;;;;;;;5013475;28;20037;-52
2023/10/31 03:09:40;;;;;;;446.73;132.87;;;;;;;;;;5013543;28;20278;-53
2023/10/31 03:12:05;;;;;;;415.60;134.20;;;;;;;;;;5012740;28;20276;-52
2023/10/31 03:14:30;;;;;;;510.83;140.18;;;;;;;;;;5013111;28;20272;-53
2023/10/31 03:16:56;;;;;;;458.03;141.13;;;;;;;;;;5014371;28;20099;-53
2023/10/31 03:19:21;;;;;;;502.92;146.73;;;;;;;;;;5013250;28;20755;-52
2023/10/31 03:21:46;;;;;;;477.00;141.03;;;;;;;;;;5013684;28;20036;-53
2023/10/31 03:24:11;;;;;;;499.10;145.07;;;;;;;;;;5013710;28;20252;-52
2023/10/31 03:26:37;;;;;;;442.73;142.40;;;;;;;;;;5013669;28;20670;-52
2023/10/31 03:29:02;;;;;;;492.30;146.38;;;;;;;;;;5013330;28;20256;-52
2023/10/31 03:31:27;;;;;;;593.65;152.15;;;;;;;;;;5013650;28;20048;-53
2023/10/31 03:33:53;;;;;;;471.63;146.98;;;;;;;;;;5012845;28;20337;-52
2023/10/31 03:36:19;;;;;;;596.35;155.70;;;;;;;;;;5012236;28;20030;-53
2023/10/31 03:38:44;;;;;;;464.00;147.15;;;;;;;;;;5013122;28;20021;-53
2023/10/31 03:41:09;;;;;;;439.50;144.50;;;;;;;;;;5013505;28;20057;-53
2023/10/31 03:43:35;;;;;;;537.75;153.63;;;;;;;;;;5011893;28;20643;-52
2023/10/31 03:46:00;;;;;;;508.08;147.77;;;;;;;;;;5014092;28;20037;-54
2023/10/31 03:48:25;;;;;;;616.17;157.65;;;;;;;;;;5012115;28;20025;-53
2023/10/31 03:50:51;;;;;;;495.77;152.93;;;;;;;;;;5013506;28;20041;-52
2023/10/31 03:53:16;;;;;;;530.28;154.32;;;;;;;;;;5012515;28;20034;-53
2023/10/31 03:55:41;;;;;;;475.98;155.02;;;;;;;;;;5012292;28;20029;-52
2023/10/31 03:58:07;;;;;;;474.60;143.05;;;;;;;;;;5011647;28;20029;-52
2023/10/31 04:00:32;;;;;;;638.22;157.98;;;;;;;;;;5011658;28;20047;-53
2023/10/31 04:02:58;;;;;;;451.75;151.90;;;;;;;;;;5014329;28;20021;-52
2023/10/31 04:05:23;;;;;;;528.40;151.47;;;;;;;;;;5011298;28;20541;-52
2023/10/31 04:07:48;;;;;;;449.93;149.47;;;;;;;;;;5016470;28;20807;-52
2023/10/31 04:10:14;;;;;;;402.42;134.77;;;;;;;;;;5016448;28;20919;-52
2023/10/31 04:12:39;;;;;;;395.38;133.00;;;;;;;;;;5013632;28;20627;-52
2023/10/31 04:15:05;;;;;;;471.80;137.63;;;;;;;;;;5013816;28;20030;-52
2023/10/31 04:17:30;;;;;;;581.28;144.30;;;;;;;;;;5013370;28;20387;-52
2023/10/31 04:19:55;;;;;;;426.42;136.93;;;;;;;;;;5015818;28;20472;-52
2023/10/31 04:22:21;;;;;;;584.47;145.85;;;;;;;;;;5013336;28;20478;-52
2023/10/31 04:24:46;;;;;;;413.97;136.43;;;;;;;;;;5015567;28;20021;-52
2023/10/31 04:27:11;;;;;;;444.33;141.37;;;;;;;;;;5015600;28;20342;-52
2023/10/31 04:29:36;;;;;;;472.70;145.48;;;;;;;;;;5014373;28;20821;-52
2023/10/31 04:32:02;;;;;;;441.52;147.48;;;;;;;;;;5014141;28;20149;-53
2023/10/31 04:34:27;;;;;;;533.15;152.15;;;;;;;;;;5012787;28;20037;-53
2023/10/31 04:36:53;;;;;;;482.85;151.45;;;;;;;;;;5012512;28;20030;-53
2023/10/31 04:39:18;;;;;;;506.23;157.88;;;;;;;;;;5011957;28;20055;-53
2023/10/31 04:41:43;;;;;;;456.60;152.98;;;;;;;;;;5012629;28;20303;-53
2023/10/31 04:44:08;;;;;;;494.60;156.57;;;;;;;;;;5013931;28;20035;-52
2023/10/31 04:46:34;;;;;;;574.95;155.95;;;;;;;;;;5011353;28;20162;-53
2023/10/31 04:48:59;;;;;;;450.15;153.73;;;;;;;;;;5013565;28;20025;-54
2023/10/31 04:51:24;;;;;;;614.35;154.38;;;;;;;;;;5011353;28;20049;-51
2023/10/31 04:53:49;;;;;;;499.90;152.68;;;;;;;;;;5012096;28;20551;-51
2023/10/31 04:56:15;;;;;;;490.93;153.10;;;;;;;;;;5012022;28;20272;-52
2023/10/31 04:58:41;;;;;;;457.75;153.38;;;;;;;;;;5012610;28;20274;-52
2023/10/31 05:01:13;;;;;;;482.67;151.15;;;;;;;;;;5012601;28;20602;-53
2023/10/31 05:03:38;;;;;;;493.13;138.88;;;;;;;;;;5013065;28;20037;-51
2023/10/31 05:06:04;;;;;;;419.63;129.45;;;;;;;;;;5014567;28;20033;-51
2023/10/31 05:08:30;;;;;;;497.50;133.73;;;;;;;;;;5013798;28;20087;-52
2023/10/31 05:10:55;;;;;;;453.48;136.50;;;;;;;;;;5014575;28;20029;-52
2023/10/31 05:13:20;;;;;;;443.17;132.30;;;;;;;;;;5013029;28;20577;-51
2023/10/31 05:15:45;;;;;;;412.83;126.38;;;;;;;;;;5013244;28;20026;-52
2023/10/31 05:18:11;;;;;;;422.55;129.10;;;;;;;;;;5016079;28;20405;-51
2023/10/31 05:20:36;;;;;;;557.28;144.32;;;;;;;;;;5013454;28;20029;-52
2023/10/31 05:23:01;;;;;;;446.10;140.88;;;;;;;;;;5014907;28;20033;-52
2023/10/31 05:25:26;;;;;;;533.45;145.38;;;;;;;;;;5012901;28;20928;-52
2023/10/31 05:27:52;;;;;;;424.25;139.18;;;;;;;;;;5014571;28;20033;-52
2023/10/31 05:30:17;;;;;;;459.13;143.13;;;;;;;;;;5013193;28;20382;-53
2023/10/31 05:32:43;;;;;;;414.70;140.40;;;;;;;;;;5013208;28;20272;-53
2023/10/31 05:35:08;;;;;;;469.08;144.57;;;;;;;;;;5012959;28;20489;-53
2023/10/31 05:37:34;;;;;;;563.60;148.93;;;;;;;;;;5012653;28;20115;-53
2023/10/31 05:40:00;;;;;;;457.20;146.23;;;;;;;;;;5014002;28;20159;-53
2023/10/31 05:42:27;;;;;;;551.30;154.93;;;;;;;;;;5011319;28;20722;-52
2023/10/31 05:44:52;;;;;;;456.55;150.82;;;;;;;;;;5015086;28;20034;-53
2023/10/31 05:47:18;;;;;;;444.65;152.45;;;;;;;;;;5015360;28;20044;-53
2023/10/31 05:49:43;;;;;;;471.58;153.05;;;;;;;;;;5013630;28;20018;-53
2023/10/31 05:52:09;;;;;;;471.70;151.60;;;;;;;;;;5014836;28;20077;-53
2023/10/31 05:54:34;;;;;;;481.00;154.07;;;;;;;;;;5013471;28;20130;-52
2023/10/31 05:56:59;;;;;;;481.02;152.95;;;;;;;;;;5012733;28;20029;-53
2023/10/31 05:59:25;;;;;;;589.07;159.13;;;;;;;;;;5012541;28;20017;-53
2023/10/31 06:01:50;;;;;;;464.52;155.43;;;;;;;;;;5015524;28;20700;-53
2023/10/31 06:04:15;;;;;;;501.67;155.95;;;;;;;;;;5012212;28;20025;-53
2023/10/31 06:06:41;;;;;;;477.45;152.73;;;;;;;;;;5010456;28;20046;-52
2023/10/31 06:09:06;;;;;;;440.05;149.88;;;;;;;;;;5012226;28;20025;-53
2023/10/31 06:11:31;;;;;;;650.55;161.05;;;;;;;;;;5009742;28;20071;-52
2023/10/31 06:13:57;;;;;;;541.63;153.43;;;;;;;;;;5012157;28;20025;-52
2023/10/31 06:16:23;;;;;;;470.27;154.75;;;;;;;;;;5011870;28;20042;-55
2023/10/31 06:18:48;;;;;;;496.30;153.50;;;;;;;;;;5013549;28;20382;-53
2023/10/31 06:21:13;;;;;;;508.90;152.83;;;;;;;;;;5014319;28;20763;-51
2023/10/31 06:23:38;;;;;;;521.75;155.82;;;;;;;;;;5013772;28;20271;-52
2023/10/31 06:26:04;;;;;;;554.45;167.32;;;;;;;;;;5013539;28;20041;-52
2023/10/31 06:28:29;;;;;;;571.33;167.70;;;;;;;;;;5013634;28;20036;-53
2023/10/31 06:30:55;;;;;;;496.50;155.03;;;;;;;;;;5012626;28;20038;-52
2023/10/31 06:33:20;;;;;;;448.25;138.23;;;;;;;;;;5013834;28;20372;-53
2023/10/31 06:35:45;;;;;;;518.90;144.88;;;;;;;;;;5012178;28;20044;-53
2023/10/31 06:38:10;;;;;;;405.87;139.33;;;;;;;;;;5014847;28;20766;-54
2023/10/31 06:40:36;;;;;;;553.67;146.10;;;;;;;;;;5013002;28;20671;-52
2023/10/31 06:43:01;;;;;;;477.73;139.05;;;;;;;;;;5014299;28;20352;-53
2023/10/31 06:45:26;;;;;;;451.85;136.88;;;;;;;;;;5013126;28;20497;-52
2023/10/31 06:47:52;;;;;;;516.13;141.03;;;;;;;;;;5014044;28;20112;-53
2023/10/31 06:50:17;;;;;;;485.10;139.52;;;;;;;;;;5013986;28;20295;-53
2023/10/31 06:52:42;;;;;;;460.52;139.30;;;;;;;;;;5013945;28;20022;-52
2023/10/31 06:55:08;;;;;;;506.77;147.82;;;;;;;;;;5012929;28;20312;-53
2023/10/31 06:57:33;;;;;;;484.90;145.80;;;;;;;;;;5014721;28;20587;-53
2023/10/31 06:59:58;;;;;;;445.05;134.32;;;;;;;;;;5018246;28;20120;-52
2023/10/31 07:02:25;;;;;;;499.92;143.85;;;;;;;;;;5015826;28;20719;-54
2023/10/31 07:04:50;;;;;;;463.90;147.88;;;;;;;;;;5017001;28;20488;-53
2023/10/31 07:07:16;;;;;;;454.05;148.10;;;;;;;;;;5017463;28;20513;-52
2023/10/31 07:09:41;;;;;;;511.25;151.70;;;;;;;;;;5017393;28;20108;-53
2023/10/31 07:12:06;;;;;;;483.50;147.27;;;;;;;;;;5016945;28;20103;-52
2023/10/31 07:14:31;;;;;;;505.63;149.45;;;;;;;;;;5015483;28;20784;-52
2023/10/31 07:16:57;;;;;;;475.80;149.80;;;;;;;;;;5016038;28;20021;-52
2023/10/31 07:19:22;;;;;;;483.05;151.93;;;;;;;;;;5017010;28;20778;-52
2023/10/31 07:21:47;;;;;;;507.38;154.23;;;;;;;;;;5015883;28;20083;-52
2023/10/31 07:24:12;;;;;;;503.30;143.80;;;;;;;;;;5016583;28;20021;-52
2023/10/31 07:26:38;;;;;;;491.10;144.85;;;;;;;;;;5015125;28;20465;-52
2023/10/31 07:29:03;;;;;;;497.63;144.93;;;;;;;;;;5017214;28;20021;-52
2023/10/31 07:31:28;;;;;;;529.95;145.93;;;;;;;;;;5014956;28;20040;-52
2023/10/31 07:33:54;;;;;;;456.27;144.83;;;;;;;;;;5016653;28;20027;-52
2023/10/31 07:36:19;;;;;;;512.30;151.13;;;;;;;;;;5015698;28;20351;-53
2023/10/31 07:38:44;;;;;;;467.67;148.27;;;;;;;;;;5016067;28;20803;-52
2023/10/31 07:41:09;;;;;;;515.23;152.33;;;;;;;;;;5017352;28;20378;-53
2023/10/31 07:43:35;;;;;;;548.72;144.90;;;;;;;;;;5014196;28;20722;-53
2023/10/31 07:46:00;;;;;;;489.15;156.65;;;;;;;;;;5016473;28;20188;-53
2023/10/31 07:48:25;;;;;;;474.08;150.60;;;;;;;;;;5017248;28;20021;-52
2023/10/31 07:50:50;;;;;;;478.60;150.88;;;;;;;;;;5016757;28;20313;-52
2023/10/31 07:53:16;;;;;;;514.22;156.23;;;;;;;;;;5016250;28;20053;-53
2023/10/31 07:55:41;;;;;;;529.20;157.55;;;;;;;;;;5015979;28;20042;-52
2023/10/31 07:58:06;;;;;;;503.77;156.77;;;;;;;;;;5016803;28;20013;-52
2023/10/31 08:00:34;;;;;;;504.75;155.85;;;;;;;;;;5013227;28;20116;-52
2023/10/31 08:03:00;;;;;;;437.45;140.27;;;;;;;;;;5016269;28;20440;-53
2023/10/31 08:05:25;;;;;;;521.78;152.43;;;;;;;;;;5014388;28;20529;-52
2023/10/31 08:07:50;;;;;;;490.83;153.35;;;;;;;;;;5015608;28;20018;-52
2023/10/31 08:10:16;;;;;;;434.70;145.15;;;;;;;;;;5015863;28;20302;-53
2023/10/31 08:12:41;;;;;;;498.20;152.10;;;;;;;;;;5015442;28;20032;-52
2023/10/31 08:15:06;;;;;;;483.83;154.75;;;;;;;;;;5013372;28;20022;-53
2023/10/31 08:17:31;;;;;;;509.27;143.23;;;;;;;;;;5014937;28;20021;-53
2023/10/31 08:19:57;;;;;;;464.77;146.43;;;;;;;;;;5016532;28;20009;-52
2023/10/31 08:22:25;;;;;;;572.40;151.13;;;;;;;;;;5013760;28;20428;-51
2023/10/31 08:24:50;;;;;;;421.30;145.45;;;;;;;;;;5017780;28;20256;-54
2023/10/31 08:27:15;;;;;;;376.33;146.17;;;;;;;;;;5019198;28;20517;-53
2023/10/31 08:29:41;;;;;;;448.15;156.07;;;;;;;;;;5017830;28;20352;-52
2023/10/31 08:32:06;;;;;;;411.48;145.68;;;;;;;;;;5018228;28;20033;-56
2023/10/31 08:34:32;;;;;;;497.58;151.23;;;;;;;;;;5017913;28;20048;-55
2023/10/31 08:36:58;;;;;;;434.95;155.65;;;;;;;;;;5017929;28;20417;-55
2023/10/31 08:39:24;;;;;;;475.80;158.80;;;;;;;;;;5018128;28;20013;-54
2023/10/31 08:41:56;;;;;;;403.58;145.77;;;;;;;;;;5018411;28;20036;-54
2023/10/31 08:44:22;;;;;;;385.60;146.30;;;;;;;;;;5019112;28;20025;-54
2023/10/31 08:46:47;;;;;;;455.95;155.10;;;;;;;;;;5018051;28;20041;-59
2023/10/31 08:49:13;;;;;;;430.60;152.35;;;;;;;;;;5019129;28;20220;-54
2023/10/31 08:51:38;;;;;;;460.60;156.55;;;;;;;;;;5018733;28;20106;-54
2023/10/31 08:54:03;;;;;;;495.77;155.53;;;;;;;;;;5018644;28;20389;-54
2023/10/31 08:56:28;;;;;;;442.17;144.60;;;;;;;;;;5017627;28;20264;-54
2023/10/31 08:58:54;;;;;;;399.57;148.90;;;;;;;;;;5019308;28;20473;-55
2023/10/31 09:01:19;;;;;;;407.25;149.55;;;;;;;;;;5018724;28;20271;-54
2023/10/31 09:03:44;;;;;;;517.45;152.48;;;;;;;;;;5018528;28;20017;-55
2023/10/31 09:06:10;;;;;;;355.48;145.45;;;;;;;;;;5019301;28;20056;-54
2023/10/31 09:08:36;;;;;;;466.58;150.43;;;;;;;;;;5020312;28;20044;-54
2023/10/31 09:11:02;;;;;;;410.15;149.57;;;;;;;;;;5019897;28;20040;-54
2023/10/31 09:13:27;;;;;;;396.42;150.32;;;;;;;;;;5020512;28;20025;-54
2023/10/31 09:15:53;;;;;;;382.20;147.90;;;;;;;;;;5018783;28;20095;-55
2023/10/31 09:18:18;;;;;;;444.88;153.48;;;;;;;;;;5019893;28;20025;-54
2023/10/31 09:20:44;;;;;;;466.20;155.17;;;;;;;;;;5018018;28;20049;-54
2023/10/31 09:23:09;;;;;;;430.88;154.65;;;;;;;;;;5019448;28;20295;-55
2023/10/31 09:25:34;;;;;;;442.75;156.90;;;;;;;;;;5017714;28;20030;-55
2023/10/31 09:28:00;;;;;;;456.75;156.38;;;;;;;;;;5020241;28;20363;-54
2023/10/31 09:30:26;;;;;;;437.52;156.35;;;;;;;;;;5018386;28;20586;-54
2023/10/31 09:32:52;;;;;;;403.60;158.50;;;;;;;;;;5018442;28;20485;-54
2023/10/31 09:35:17;;;;;;;430.35;156.55;;;;;;;;;;5018726;28;20427;-54
2023/10/31 09:37:43;;;;;;;443.48;158.60;;;;;;;;;;5020084;28;20021;-55
2023/10/31 09:40:10;;;;;;;383.65;152.23;;;;;;;;;;5018396;28;20034;-54
2023/10/31 09:42:35;;;;;;;568.78;155.88;;;;;;;;;;5017576;28;20414;-55
2023/10/31 09:45:00;;;;;;;448.73;159.57;;;;;;;;;;5018681;28;20025;-54
2023/10/31 09:47:26;;;;;;;405.55;151.30;;;;;;;;;;5019634;28;20640;-55
2023/10/31 09:49:51;;;;;;;410.63;145.90;;;;;;;;;;5019433;28;20086;-55
2023/10/31 09:52:17;;;;;;;418.65;144.68;;;;;;;;;;5020319;28;20038;-54
2023/10/31 09:54:42;;;;;;;442.17;155.38;;;;;;;;;;5017408;28;20092;-54
2023/10/31 09:57:09;;;;;;;496.25;160.63;;;;;;;;;;5018688;28;20122;-54
2023/10/31 09:59:34;;;;;;;507.70;161.20;;;;;;;;;;5019863;28;20021;-54
2023/10/31 10:01:59;;;;;;;392.73;155.38;;;;;;;;;;5020261;28;20036;-54
2023/10/31 10:04:25;;;;;;;429.27;154.40;;;;;;;;;;5019636;28;20030;-54
2023/10/31 10:07:01;;;;;;;438.25;161.23;;;;;;;;;;5018808;28;20136;-54
2023/10/31 10:09:27;;;;;;;501.27;164.15;;;;;;;;;;5017496;28;20018;-54
2023/10/31 10:11:52;;;;;;;451.52;162.90;;;;;;;;;;5016444;28;20056;-54
2023/10/31 10:14:18;;;;;;;436.92;160.60;;;;;;;;;;5018516;28;20021;-54
2023/10/31 10:16:43;;;;;;;546.80;166.38;;;;;;;;;;5018022;28;20116;-54
2023/10/31 10:19:27;;;;;;;400.27;158.57;;;;;;;;;;5018572;28;20029;-56
2023/10/31 10:21:53;;;;;;;476.77;162.02;;;;;;;;;;5016640;28;20113;-55
2023/10/31 10:24:19;;;;;;;435.65;161.98;;;;;;;;;;5018728;28;20017;-55
2023/10/31 10:26:44;;;;;;;472.75;161.98;;;;;;;;;;5017541;28;20131;-56
2023/10/31 10:29:10;;;;;;;430.95;163.23;;;;;;;;;;5017832;28;20069;-54
2023/10/31 10:31:35;;;;;;;473.73;164.52;;;;;;;;;;5017225;28;20100;-54
2023/10/31 10:34:01;;;;;;;486.70;165.85;;;;;;;;;;5020303;28;20030;-54
2023/10/31 10:36:26;;;;;;;488.23;168.82;;;;;;;;;;5020485;28;20033;-55
2023/10/31 10:38:54;;;;;;;416.98;162.45;;;;;;;;;;5020809;28;20013;-55
2023/10/31 10:41:20;;;;;;;402.13;161.85;;;;;;;;;;5022435;28;20037;-55
2023/10/31 10:43:47;;;;;;;511.88;167.50;;;;;;;;;;5020753;28;20407;-55
2023/10/31 10:46:15;;;;;;;464.95;168.98;;;;;;;;;;5020858;28;20076;-54
2023/10/31 10:48:44;;;;;;;519.55;170.80;;;;;;;;;;5020017;28;20024;-54
2023/10/31 10:51:19;;;;;;;416.08;169.38;;;;;;;;;;5020522;28;20656;-55
2023/10/31 10:53:52;;;;;;;556.58;174.02;;;;;;;;;;5019104;28;20029;-54
2023/10/31 10:56:17;;;;;;;;;;;;;;;;;;5021367;28;20347;-53
2023/10/31 10:58:55;;;;;;;555.53;178.50;;;;;;;;;;5019936;28;19936;-55
2023/10/31 11:01:20;;;;;;;504.50;178.65;;;;;;;;;;5020907;28;20101;-55
2023/10/31 11:03:46;;;;;;;515.92;172.63;;;;;;;;;;5019511;28;20071;-54
2023/10/31 11:06:12;;;;;;;451.15;172.38;;;;;;;;;;5020155;28;20076;-54
2023/10/31 11:08:37;;;;;;;519.85;176.00;;;;;;;;;;5019886;28;20329;-55
2023/10/31 11:11:03;;;;;;;435.95;168.00;;;;;;;;;;5021852;28;20041;-55
2023/10/31 11:13:29;;;;;;;471.48;170.90;;;;;;;;;;5021567;28;20029;-55
2023/10/31 11:15:57;;;;;;;429.02;169.52;;;;;;;;;;5020113;28;20041;-55
2023/10/31 11:18:23;;;;;;;456.38;172.80;;;;;;;;;;5022308;28;20044;-54
2023/10/31 11:20:48;;;;;;;476.48;172.70;;;;;;;;;;5022027;28;20029;-53
2023/10/31 11:23:14;;;;;;;475.80;175.63;;;;;;;;;;5021566;28;20025;-54
2023/10/31 11:25:43;;;;;;;532.55;176.60;;;;;;;;;;5018497;28;20567;-55
2023/10/31 11:28:13;;;;;;;429.40;171.15;;;;;;;;;;5021857;28;20017;-55
2023/10/31 11:30:39;;;;;;;529.10;176.52;;;;;;;;;;5020598;28;20060;-55
2023/10/31 11:33:05;;;;;;;416.52;170.43;;;;;;;;;;5022383;28;20108;-55
2023/10/31 11:35:32;;;;;;;449.23;174.10;;;;;;;;;;5020879;28;20141;-55
2023/10/31 11:38:07;;;;;;;491.63;185.88;;;;;;;;;;5021201;28;20021;-55
2023/10/31 11:40:33;;;;;;;434.38;173.10;;;;;;;;;;5020845;28;20065;-56
2023/10/31 11:42:58;;;;;;;448.63;172.00;;;;;;;;;;5019728;28;20052;-54
2023/10/31 11:45:27;;;;;;;483.08;181.55;;;;;;;;;;5019228;28;20425;-55
2023/10/31 11:47:52;;;;;;;527.22;175.63;;;;;;;;;;5020590;28;20108;-54
2023/10/31 11:50:18;;;;;;;458.08;174.68;;;;;;;;;;5020802;28;20116;-55
2023/10/31 11:52:43;;;;;;;462.75;171.65;;;;;;;;;;5020881;28;20033;-55
2023/10/31 11:55:12;;;;;;;461.42;172.52;;;;;;;;;;5019954;28;20128;-54
2023/10/31 11:57:38;;;;;;;466.92;170.50;;;;;;;;;;5020722;28;20398;-54
2023/10/31 12:00:04;;;;;;;463.48;178.63;;;;;;;;;;5021622;28;20025;-55
2023/10/31 12:02:30;;;;;;;463.98;170.68;;;;;;;;;;5018984;28;20038;-52
2023/10/31 12:05:11;;;;;;;434.88;169.88;;;;;;;;;;5020533;28;20402;-52
2023/10/31 12:07:45;;;;;;;494.65;172.98;;;;;;;;;;5017995;28;20041;-51
2023/10/31 12:10:11;;;;;;;455.98;171.73;;;;;;;;;;5019951;28;20024;-54
2023/10/31 12:12:36;;;;;;;466.40;172.73;;;;;;;;;;5018536;28;20417;-55
2023/10/31 12:15:06;;;;;;;467.70;172.13;;;;;;;;;;5019903;28;20556;-53
2023/10/31 12:17:32;;;;;;;456.50;171.38;;;;;;;;;;5019265;28;20029;-52
2023/10/31 12:19:58;;;;;;;445.08;170.07;;;;;;;;;;5019550;28;20172;-52
2023/10/31 12:22:23;;;;;;;430.08;167.93;;;;;;;;;;5020210;28;20033;-53
2023/10/31 12:24:48;;;;;;;538.33;168.43;;;;;;;;;;5018572;28;20235;-54
2023/10/31 12:27:14;;;;;;;456.13;166.27;;;;;;;;;;5020550;28;20279;-54
2023/10/31 12:29:39;;;;;;;497.20;167.77;;;;;;;;;;5019161;28;20253;-54
2023/10/31 12:32:04;;;;;;;452.17;161.75;;;;;;;;;;5018391;28;20458;-54
2023/10/31 12:34:30;;;;;;;436.20;163.35;;;;;;;;;;5019417;28;20025;-53
2023/10/31 12:36:56;;;;;;;462.38;164.98;;;;;;;;;;5019607;28;20572;-54
2023/10/31 12:39:22;;;;;;;396.38;159.48;;;;;;;;;;5021800;28;20448;-54
2023/10/31 12:41:48;;;;;;;474.70;165.93;;;;;;;;;;5018652;28;20104;-53
2023/10/31 12:44:17;;;;;;;446.83;165.38;;;;;;;;;;5020518;28;20108;-53
2023/10/31 12:46:42;;;;;;;490.05;164.00;;;;;;;;;;5018916;28;20045;-54
2023/10/31 12:49:13;;;;;;;428.75;161.90;;;;;;;;;;5020567;28;20436;-53
2023/10/31 12:51:38;;;;;;;478.75;163.60;;;;;;;;;;5017988;28;20033;-54
2023/10/31 12:54:03;;;;;;;439.87;159.57;;;;;;;;;;5020383;28;20025;-53
2023/10/31 12:56:41;;;;;;;433.65;160.40;;;;;;;;;;5018340;28;20267;-53
2023/10/31 12:59:07;;;;;;;484.77;162.95;;;;;;;;;;5020837;28;20021;-53
2023/10/31 13:01:36;;;;;;;438.63;158.70;;;;;;;;;;5019808;28;20539;-55
2023/10/31 13:04:05;;;;;;;439.38;155.68;;;;;;;;;;5019603;28;20028;-53
2023/10/31 13:06:30;;;;;;;452.38;158.05;;;;;;;;;;5019319;28;20040;-53
2023/10/31 13:08:57;;;;;;;508.75;159.63;;;;;;;;;;5018697;28;20021;-53
2023/10/31 13:11:25;;;;;;;410.73;155.82;;;;;;;;;;5019870;28;20535;-53
2023/10/31 13:13:51;;;;;;;486.88;153.15;;;;;;;;;;5019270;28;20128;-54
2023/10/31 13:16:16;;;;;;;453.55;160.00;;;;;;;;;;5019886;28;20183;-54
2023/10/31 13:18:42;;;;;;;480.77;163.75;;;;;;;;;;5019770;28;20113;-53
2023/10/31 13:21:08;;;;;;;413.40;156.48;;;;;;;;;;5019354;28;20034;-53
2023/10/31 13:23:33;;;;;;;445.70;164.00;;;;;;;;;;5019655;28;20026;-53
2023/10/31 13:25:59;;;;;;;463.98;161.88;;;;;;;;;;5016543;28;20026;-55
2023/10/31 13:28:24;;;;;;;420.50;156.80;;;;;;;;;;5019588;28;20412;-55
2023/10/31 13:30:49;;;;;;;453.70;160.93;;;;;;;;;;5019009;28;20497;-55
2023/10/31 13:33:15;;;;;;;457.55;160.77;;;;;;;;;;5019706;28;20275;-55
2023/10/31 13:35:40;;;;;;;432.17;159.07;;;;;;;;;;5018822;28;20594;-54
2023/10/31 13:38:05;;;;;;;426.37;164.77;;;;;;;;;;5021195;28;20723;-54
2023/10/31 13:40:30;;;;;;;416.17;164.35;;;;;;;;;;5019697;28;20260;-54
2023/10/31 13:42:56;;;;;;;550.10;170.57;;;;;;;;;;5018387;28;20025;-54
2023/10/31 13:45:21;;;;;;;448.10;168.95;;;;;;;;;;5018000;28;20267;-55